sensor_id;sensor_type;location;lat;lon;timestamp;P1;durP1;ratioP1;P2;durP2;ratioP2
46090;SDS011;31826;53.572;10.170;2023-03-31T00:02:00;18.35;;;3.88;;
46090;SDS011;31826;53.572;10.170;2023-03-31T00:04:31;16.10;;;3.22;;
46090;SDS011;31826;53.572;10.170;2023-03-31T00:06:57;12.57;;;2.63;;
46090;SDS011;31826;53.572;10.170;2023-03-31T00:09:23;14.10;;;2.90;;
46090;SDS011;31826;53.572;10.170;2023-03-31T00:11:50;13.30;;;3.20;;
46090;SDS011;31826;53.572;10.170;2023-03-31T00:14:17;13.35;;;3.00;;
46090;SDS011;31826;53.572;10.170;2023-03-31T00:16:44;11.15;;;2.50;;
46090;SDS011;31826;53.572;10.170;2023-03-31T00:19:10;12.17;;;2.77;;
46090;SDS011;31826;53.572;10.170;2023-03-31T00:21:42;14.23;;;2.70;;
46090;SDS011;31826;53.572;10.170;2023-03-31T00:24:08;14.68;;;2.90;;
46090;SDS011;31826;53.572;10.170;2023-03-31T00:26:35;12.98;;;2.97;;
46090;SDS011;31826;53.572;10.170;2023-03-31T00:29:02;12.60;;;2.28;;
46090;SDS011;31826;53.572;10.170;2023-03-31T00:31:29;21.30;;;3.55;;
46090;SDS011;31826;53.572;10.170;2023-03-31T00:33:55;11.65;;;2.60;;
46090;SDS011;31826;53.572;10.170;2023-03-31T00:36:22;12.53;;;2.70;;
46090;SDS011;31826;53.572;10.170;2023-03-31T00:38:58;18.40;;;3.43;;
46090;SDS011;31826;53.572;10.170;2023-03-31T00:41:27;11.85;;;2.78;;
46090;SDS011;31826;53.572;10.170;2023-03-31T00:44:27;9.30;;;2.60;;
46090;SDS011;31826;53.572;10.170;2023-03-31T00:46:58;12.15;;;2.72;;
46090;SDS011;31826;53.572;10.170;2023-03-31T00:49:42;11.50;;;2.53;;
46090;SDS011;31826;53.572;10.170;2023-03-31T00:52:15;14.30;;;2.42;;
46090;SDS011;31826;53.572;10.170;2023-03-31T00:54:52;11.27;;;2.90;;
46090;SDS011;31826;53.572;10.170;2023-03-31T00:57:21;14.40;;;2.78;;
46090;SDS011;31826;53.572;10.170;2023-03-31T00:59:50;13.63;;;2.50;;
46090;SDS011;31826;53.572;10.170;2023-03-31T01:02:22;15.93;;;3.20;;
46090;SDS011;31826;53.572;10.170;2023-03-31T01:04:51;17.30;;;3.53;;
46090;SDS011;31826;53.572;10.170;2023-03-31T01:07:44;13.63;;;2.73;;
46090;SDS011;31826;53.572;10.170;2023-03-31T01:10:10;18.50;;;3.08;;
46090;SDS011;31826;53.572;10.170;2023-03-31T01:12:38;12.73;;;2.80;;
46090;SDS011;31826;53.572;10.170;2023-03-31T01:15:06;12.02;;;2.75;;
46090;SDS011;31826;53.572;10.170;2023-03-31T01:17:33;13.27;;;2.72;;
46090;SDS011;31826;53.572;10.170;2023-03-31T01:51:13;15.20;;;3.05;;
46090;SDS011;31826;53.572;10.170;2023-03-31T01:56:45;15.52;;;2.92;;
46090;SDS011;31826;53.572;10.170;2023-03-31T01:59:22;11.90;;;2.87;;
46090;SDS011;31826;53.572;10.170;2023-03-31T02:01:53;13.68;;;2.95;;
46090;SDS011;31826;53.572;10.170;2023-03-31T02:04:34;11.32;;;2.65;;
46090;SDS011;31826;53.572;10.170;2023-03-31T02:07:17;12.82;;;2.45;;
46090;SDS011;31826;53.572;10.170;2023-03-31T02:09:49;12.90;;;3.35;;
46090;SDS011;31826;53.572;10.170;2023-03-31T02:12:20;14.57;;;3.00;;
46090;SDS011;31826;53.572;10.170;2023-03-31T02:14:49;15.90;;;4.18;;
46090;SDS011;31826;53.572;10.170;2023-03-31T02:17:16;13.05;;;3.08;;
46090;SDS011;31826;53.572;10.170;2023-03-31T02:19:45;11.10;;;2.42;;
46090;SDS011;31826;53.572;10.170;2023-03-31T02:22:14;11.27;;;2.97;;
46090;SDS011;31826;53.572;10.170;2023-03-31T02:24:43;11.98;;;2.90;;
46090;SDS011;31826;53.572;10.170;2023-03-31T02:27:12;16.73;;;3.20;;
46090;SDS011;31826;53.572;10.170;2023-03-31T02:29:46;15.20;;;3.40;;
46090;SDS011;31826;53.572;10.170;2023-03-31T02:34:59;11.90;;;3.22;;
46090;SDS011;31826;53.572;10.170;2023-03-31T02:37:25;15.07;;;3.92;;
46090;SDS011;31826;53.572;10.170;2023-03-31T02:39:53;10.85;;;3.20;;
46090;SDS011;31826;53.572;10.170;2023-03-31T02:42:21;14.48;;;3.63;;
46090;SDS011;31826;53.572;10.170;2023-03-31T02:44:47;18.05;;;3.78;;
46090;SDS011;31826;53.572;10.170;2023-03-31T02:47:13;10.80;;;3.65;;
46090;SDS011;31826;53.572;10.170;2023-03-31T02:49:43;8.80;;;3.13;;
46090;SDS011;31826;53.572;10.170;2023-03-31T03:00:34;13.47;;;3.93;;
46090;SDS011;31826;53.572;10.170;2023-03-31T03:03:14;12.85;;;3.72;;
46090;SDS011;31826;53.572;10.170;2023-03-31T03:06:24;10.57;;;3.42;;
46090;SDS011;31826;53.572;10.170;2023-03-31T03:11:38;12.57;;;3.70;;
46090;SDS011;31826;53.572;10.170;2023-03-31T03:14:15;12.47;;;3.57;;
46090;SDS011;31826;53.572;10.170;2023-03-31T03:17:05;18.73;;;4.13;;
46090;SDS011;31826;53.572;10.170;2023-03-31T03:19:58;9.98;;;3.38;;
46090;SDS011;31826;53.572;10.170;2023-03-31T03:22:25;13.60;;;3.33;;
46090;SDS011;31826;53.572;10.170;2023-03-31T03:24:51;12.18;;;3.85;;
46090;SDS011;31826;53.572;10.170;2023-03-31T03:27:18;12.05;;;4.00;;
46090;SDS011;31826;53.572;10.170;2023-03-31T03:29:46;12.23;;;3.97;;
46090;SDS011;31826;53.572;10.170;2023-03-31T03:32:12;11.02;;;3.42;;
46090;SDS011;31826;53.572;10.170;2023-03-31T03:34:38;11.70;;;4.18;;
46090;SDS011;31826;53.572;10.170;2023-03-31T03:37:04;15.00;;;4.63;;
46090;SDS011;31826;53.572;10.170;2023-03-31T03:39:30;15.53;;;4.83;;
46090;SDS011;31826;53.572;10.170;2023-03-31T03:41:56;22.92;;;8.80;;
46090;SDS011;31826;53.572;10.170;2023-03-31T03:44:21;18.33;;;7.03;;
46090;SDS011;31826;53.572;10.170;2023-03-31T03:46:47;27.20;;;8.17;;
46090;SDS011;31826;53.572;10.170;2023-03-31T03:49:13;24.60;;;8.57;;
46090;SDS011;31826;53.572;10.170;2023-03-31T03:51:39;22.57;;;6.97;;
46090;SDS011;31826;53.572;10.170;2023-03-31T03:54:04;17.37;;;5.97;;
46090;SDS011;31826;53.572;10.170;2023-03-31T03:56:30;17.37;;;5.93;;
46090;SDS011;31826;53.572;10.170;2023-03-31T03:58:56;14.18;;;4.80;;
46090;SDS011;31826;53.572;10.170;2023-03-31T04:01:22;14.63;;;4.43;;
46090;SDS011;31826;53.572;10.170;2023-03-31T04:03:48;14.38;;;4.20;;
46090;SDS011;31826;53.572;10.170;2023-03-31T04:06:13;13.53;;;4.17;;
46090;SDS011;31826;53.572;10.170;2023-03-31T04:08:39;14.03;;;4.57;;
46090;SDS011;31826;53.572;10.170;2023-03-31T04:11:15;14.90;;;4.77;;
46090;SDS011;31826;53.572;10.170;2023-03-31T04:13:43;13.85;;;4.72;;
46090;SDS011;31826;53.572;10.170;2023-03-31T04:16:09;15.38;;;5.53;;
46090;SDS011;31826;53.572;10.170;2023-03-31T04:18:36;13.75;;;5.40;;
46090;SDS011;31826;53.572;10.170;2023-03-31T04:21:06;11.95;;;4.32;;
46090;SDS011;31826;53.572;10.170;2023-03-31T04:23:39;13.82;;;5.00;;
46090;SDS011;31826;53.572;10.170;2023-03-31T04:26:12;15.23;;;5.03;;
46090;SDS011;31826;53.572;10.170;2023-03-31T04:28:39;16.37;;;5.40;;
46090;SDS011;31826;53.572;10.170;2023-03-31T04:31:09;14.40;;;5.80;;
46090;SDS011;31826;53.572;10.170;2023-03-31T04:33:39;18.77;;;5.95;;
46090;SDS011;31826;53.572;10.170;2023-03-31T04:36:05;14.60;;;4.87;;
46090;SDS011;31826;53.572;10.170;2023-03-31T04:38:44;14.63;;;5.10;;
46090;SDS011;31826;53.572;10.170;2023-03-31T04:41:12;17.35;;;5.38;;
46090;SDS011;31826;53.572;10.170;2023-03-31T04:43:38;16.25;;;6.35;;
46090;SDS011;31826;53.572;10.170;2023-03-31T04:46:04;17.23;;;5.88;;
46090;SDS011;31826;53.572;10.170;2023-03-31T04:48:30;14.50;;;5.25;;
46090;SDS011;31826;53.572;10.170;2023-03-31T04:50:55;18.48;;;6.60;;
46090;SDS011;31826;53.572;10.170;2023-03-31T04:53:21;16.60;;;5.70;;
46090;SDS011;31826;53.572;10.170;2023-03-31T04:55:49;15.03;;;6.30;;
46090;SDS011;31826;53.572;10.170;2023-03-31T04:58:15;21.25;;;6.28;;
46090;SDS011;31826;53.572;10.170;2023-03-31T05:00:41;16.17;;;5.93;;
46090;SDS011;31826;53.572;10.170;2023-03-31T05:03:07;15.15;;;5.75;;
46090;SDS011;31826;53.572;10.170;2023-03-31T05:05:35;14.57;;;5.57;;
46090;SDS011;31826;53.572;10.170;2023-03-31T05:08:02;15.75;;;5.57;;
46090;SDS011;31826;53.572;10.170;2023-03-31T05:10:28;14.67;;;5.53;;
46090;SDS011;31826;53.572;10.170;2023-03-31T05:12:54;15.68;;;5.82;;
46090;SDS011;31826;53.572;10.170;2023-03-31T05:15:20;15.82;;;5.70;;
46090;SDS011;31826;53.572;10.170;2023-03-31T05:17:46;15.85;;;5.90;;
46090;SDS011;31826;53.572;10.170;2023-03-31T05:20:12;18.33;;;5.97;;
46090;SDS011;31826;53.572;10.170;2023-03-31T05:22:38;21.67;;;6.05;;
46090;SDS011;31826;53.572;10.170;2023-03-31T05:25:06;15.23;;;6.07;;
46090;SDS011;31826;53.572;10.170;2023-03-31T05:27:33;14.52;;;6.03;;
46090;SDS011;31826;53.572;10.170;2023-03-31T05:30:00;20.95;;;6.35;;
46090;SDS011;31826;53.572;10.170;2023-03-31T05:32:26;19.25;;;6.95;;
46090;SDS011;31826;53.572;10.170;2023-03-31T05:34:53;20.73;;;6.70;;
46090;SDS011;31826;53.572;10.170;2023-03-31T05:37:22;19.83;;;6.38;;
46090;SDS011;31826;53.572;10.170;2023-03-31T05:39:49;17.33;;;6.05;;
46090;SDS011;31826;53.572;10.170;2023-03-31T05:42:15;18.00;;;6.60;;
46090;SDS011;31826;53.572;10.170;2023-03-31T05:44:41;16.95;;;6.47;;
46090;SDS011;31826;53.572;10.170;2023-03-31T05:47:07;18.03;;;6.13;;
46090;SDS011;31826;53.572;10.170;2023-03-31T05:49:32;19.60;;;6.30;;
46090;SDS011;31826;53.572;10.170;2023-03-31T05:51:58;21.23;;;6.82;;
46090;SDS011;31826;53.572;10.170;2023-03-31T05:54:24;18.85;;;6.82;;
46090;SDS011;31826;53.572;10.170;2023-03-31T05:56:51;17.95;;;6.80;;
46090;SDS011;31826;53.572;10.170;2023-03-31T05:59:17;17.25;;;6.10;;
46090;SDS011;31826;53.572;10.170;2023-03-31T06:01:43;15.10;;;5.70;;
46090;SDS011;31826;53.572;10.170;2023-03-31T06:04:08;19.13;;;6.57;;
46090;SDS011;31826;53.572;10.170;2023-03-31T06:06:34;17.58;;;6.32;;
46090;SDS011;31826;53.572;10.170;2023-03-31T06:09:02;18.90;;;6.65;;
46090;SDS011;31826;53.572;10.170;2023-03-31T06:11:28;16.73;;;6.13;;
46090;SDS011;31826;53.572;10.170;2023-03-31T06:13:53;20.43;;;7.17;;
46090;SDS011;31826;53.572;10.170;2023-03-31T06:16:19;17.85;;;5.93;;
46090;SDS011;31826;53.572;10.170;2023-03-31T06:18:45;17.88;;;5.82;;
46090;SDS011;31826;53.572;10.170;2023-03-31T06:21:11;20.38;;;6.85;;
46090;SDS011;31826;53.572;10.170;2023-03-31T06:23:41;17.67;;;6.18;;
46090;SDS011;31826;53.572;10.170;2023-03-31T06:26:11;13.70;;;6.20;;
46090;SDS011;31826;53.572;10.170;2023-03-31T06:28:38;16.80;;;5.82;;
46090;SDS011;31826;53.572;10.170;2023-03-31T06:31:05;13.35;;;5.15;;
46090;SDS011;31826;53.572;10.170;2023-03-31T06:33:33;15.98;;;5.65;;
46090;SDS011;31826;53.572;10.170;2023-03-31T06:35:59;15.13;;;5.38;;
46090;SDS011;31826;53.572;10.170;2023-03-31T06:38:28;17.20;;;5.55;;
46090;SDS011;31826;53.572;10.170;2023-03-31T06:40:53;14.60;;;4.88;;
46090;SDS011;31826;53.572;10.170;2023-03-31T06:43:20;19.30;;;5.63;;
46090;SDS011;31826;53.572;10.170;2023-03-31T06:45:45;15.67;;;6.13;;
46090;SDS011;31826;53.572;10.170;2023-03-31T06:48:12;15.30;;;5.07;;
46090;SDS011;31826;53.572;10.170;2023-03-31T06:50:38;12.57;;;4.82;;
46090;SDS011;31826;53.572;10.170;2023-03-31T06:53:06;16.17;;;4.38;;
46090;SDS011;31826;53.572;10.170;2023-03-31T06:55:32;10.82;;;4.43;;
46090;SDS011;31826;53.572;10.170;2023-03-31T06:57:58;12.82;;;5.10;;
46090;SDS011;31826;53.572;10.170;2023-03-31T07:00:24;12.77;;;4.93;;
46090;SDS011;31826;53.572;10.170;2023-03-31T07:02:51;13.75;;;4.78;;
46090;SDS011;31826;53.572;10.170;2023-03-31T07:05:17;13.52;;;4.78;;
46090;SDS011;31826;53.572;10.170;2023-03-31T07:07:44;13.77;;;4.10;;
46090;SDS011;31826;53.572;10.170;2023-03-31T07:10:10;17.57;;;5.37;;
46090;SDS011;31826;53.572;10.170;2023-03-31T07:12:35;13.57;;;4.93;;
46090;SDS011;31826;53.572;10.170;2023-03-31T07:15:02;15.13;;;4.85;;
46090;SDS011;31826;53.572;10.170;2023-03-31T07:17:28;12.52;;;4.43;;
46090;SDS011;31826;53.572;10.170;2023-03-31T07:19:53;12.63;;;4.15;;
46090;SDS011;31826;53.572;10.170;2023-03-31T07:22:19;13.38;;;4.90;;
46090;SDS011;31826;53.572;10.170;2023-03-31T07:24:44;16.77;;;4.73;;
46090;SDS011;31826;53.572;10.170;2023-03-31T07:27:10;15.80;;;4.50;;
46090;SDS011;31826;53.572;10.170;2023-03-31T07:29:36;14.93;;;4.37;;
46090;SDS011;31826;53.572;10.170;2023-03-31T07:32:02;11.93;;;4.50;;
46090;SDS011;31826;53.572;10.170;2023-03-31T07:34:27;17.50;;;4.80;;
46090;SDS011;31826;53.572;10.170;2023-03-31T07:36:54;15.70;;;5.17;;
46090;SDS011;31826;53.572;10.170;2023-03-31T07:39:20;15.52;;;4.15;;
46090;SDS011;31826;53.572;10.170;2023-03-31T07:41:46;10.85;;;4.22;;
46090;SDS011;31826;53.572;10.170;2023-03-31T07:44:12;14.23;;;4.35;;
46090;SDS011;31826;53.572;10.170;2023-03-31T07:46:38;17.13;;;4.82;;
46090;SDS011;31826;53.572;10.170;2023-03-31T07:49:04;13.80;;;4.80;;
46090;SDS011;31826;53.572;10.170;2023-03-31T07:51:31;12.05;;;4.00;;
46090;SDS011;31826;53.572;10.170;2023-03-31T07:53:57;14.23;;;4.40;;
46090;SDS011;31826;53.572;10.170;2023-03-31T07:56:23;11.55;;;3.83;;
46090;SDS011;31826;53.572;10.170;2023-03-31T07:58:49;10.98;;;4.53;;
46090;SDS011;31826;53.572;10.170;2023-03-31T08:01:17;10.50;;;3.55;;
46090;SDS011;31826;53.572;10.170;2023-03-31T08:03:45;12.00;;;3.85;;
46090;SDS011;31826;53.572;10.170;2023-03-31T08:06:16;13.43;;;4.03;;
46090;SDS011;31826;53.572;10.170;2023-03-31T08:08:42;13.50;;;3.70;;
46090;SDS011;31826;53.572;10.170;2023-03-31T08:11:08;12.70;;;3.50;;
46090;SDS011;31826;53.572;10.170;2023-03-31T08:13:34;15.50;;;4.57;;
46090;SDS011;31826;53.572;10.170;2023-03-31T08:16:00;13.95;;;5.28;;
46090;SDS011;31826;53.572;10.170;2023-03-31T08:18:26;11.38;;;3.90;;
46090;SDS011;31826;53.572;10.170;2023-03-31T08:20:51;10.93;;;3.50;;
46090;SDS011;31826;53.572;10.170;2023-03-31T08:23:17;13.00;;;4.10;;
46090;SDS011;31826;53.572;10.170;2023-03-31T08:25:43;11.17;;;3.47;;
46090;SDS011;31826;53.572;10.170;2023-03-31T08:28:08;10.13;;;3.67;;
46090;SDS011;31826;53.572;10.170;2023-03-31T08:30:38;12.23;;;3.30;;
46090;SDS011;31826;53.572;10.170;2023-03-31T08:33:05;11.50;;;3.83;;
46090;SDS011;31826;53.572;10.170;2023-03-31T08:35:32;10.93;;;2.78;;
46090;SDS011;31826;53.572;10.170;2023-03-31T08:37:59;8.75;;;3.00;;
46090;SDS011;31826;53.572;10.170;2023-03-31T08:40:26;12.93;;;3.22;;
46090;SDS011;31826;53.572;10.170;2023-03-31T08:43:06;8.48;;;3.03;;
46090;SDS011;31826;53.572;10.170;2023-03-31T08:45:36;9.68;;;2.90;;
46090;SDS011;31826;53.572;10.170;2023-03-31T08:48:19;9.18;;;2.90;;
46090;SDS011;31826;53.572;10.170;2023-03-31T08:50:50;8.23;;;3.20;;
46090;SDS011;31826;53.572;10.170;2023-03-31T08:53:30;7.63;;;3.05;;
46090;SDS011;31826;53.572;10.170;2023-03-31T08:56:03;12.43;;;2.90;;
46090;SDS011;31826;53.572;10.170;2023-03-31T08:58:40;7.05;;;2.85;;
46090;SDS011;31826;53.572;10.170;2023-03-31T09:07:10;9.27;;;2.70;;
46090;SDS011;31826;53.572;10.170;2023-03-31T09:18:30;7.38;;;2.30;;
46090;SDS011;31826;53.572;10.170;2023-03-31T09:21:03;6.30;;;2.40;;
46090;SDS011;31826;53.572;10.170;2023-03-31T09:23:47;12.30;;;2.55;;
46090;SDS011;31826;53.572;10.170;2023-03-31T09:29:49;6.55;;;2.60;;
46090;SDS011;31826;53.572;10.170;2023-03-31T09:32:20;10.85;;;2.67;;
46090;SDS011;31826;53.572;10.170;2023-03-31T09:34:55;10.25;;;2.83;;
46090;SDS011;31826;53.572;10.170;2023-03-31T09:37:26;8.75;;;2.80;;
46090;SDS011;31826;53.572;10.170;2023-03-31T09:40:01;9.52;;;2.88;;
46090;SDS011;31826;53.572;10.170;2023-03-31T09:42:32;12.38;;;2.88;;
46090;SDS011;31826;53.572;10.170;2023-03-31T09:45:01;11.30;;;3.08;;
46090;SDS011;31826;53.572;10.170;2023-03-31T09:47:34;8.00;;;2.80;;
46090;SDS011;31826;53.572;10.170;2023-03-31T09:50:04;9.40;;;2.90;;
46090;SDS011;31826;53.572;10.170;2023-03-31T09:52:32;8.90;;;3.03;;
46090;SDS011;31826;53.572;10.170;2023-03-31T09:55:02;7.47;;;2.60;;
46090;SDS011;31826;53.572;10.170;2023-03-31T09:57:39;10.32;;;3.08;;
46090;SDS011;31826;53.572;10.170;2023-03-31T10:00:15;10.20;;;4.40;;
46090;SDS011;31826;53.572;10.170;2023-03-31T10:10:45;8.63;;;2.90;;
46090;SDS011;31826;53.572;10.170;2023-03-31T10:13:29;11.63;;;2.97;;
46090;SDS011;31826;53.572;10.170;2023-03-31T10:16:05;7.80;;;2.83;;
46090;SDS011;31826;53.572;10.170;2023-03-31T10:18:40;13.60;;;3.40;;
46090;SDS011;31826;53.572;10.170;2023-03-31T10:21:23;9.65;;;2.90;;
46090;SDS011;31826;53.572;10.170;2023-03-31T10:23:51;9.75;;;3.10;;
46090;SDS011;31826;53.572;10.170;2023-03-31T10:26:19;9.27;;;3.25;;
46090;SDS011;31826;53.572;10.170;2023-03-31T10:28:48;9.65;;;3.08;;
46090;SDS011;31826;53.572;10.170;2023-03-31T10:31:16;10.35;;;2.83;;
46090;SDS011;31826;53.572;10.170;2023-03-31T10:33:58;7.45;;;2.70;;
46090;SDS011;31826;53.572;10.170;2023-03-31T10:36:33;6.85;;;3.10;;
46090;SDS011;31826;53.572;10.170;2023-03-31T10:39:00;6.85;;;3.03;;
46090;SDS011;31826;53.572;10.170;2023-03-31T10:41:31;14.73;;;4.32;;
46090;SDS011;31826;53.572;10.170;2023-03-31T10:43:58;9.80;;;2.97;;
46090;SDS011;31826;53.572;10.170;2023-03-31T10:49:19;6.95;;;2.40;;
46090;SDS011;31826;53.572;10.170;2023-03-31T10:51:53;8.45;;;2.67;;
46090;SDS011;31826;53.572;10.170;2023-03-31T10:54:21;7.47;;;2.95;;
46090;SDS011;31826;53.572;10.170;2023-03-31T10:56:48;6.72;;;2.90;;
46090;SDS011;31826;53.572;10.170;2023-03-31T11:02:36;8.43;;;2.97;;
46090;SDS011;31826;53.572;10.170;2023-03-31T11:18:36;6.77;;;2.70;;
46090;SDS011;31826;53.572;10.170;2023-03-31T11:24:20;6.57;;;2.42;;
46090;SDS011;31826;53.572;10.170;2023-03-31T11:26:56;7.65;;;3.03;;
46090;SDS011;31826;53.572;10.170;2023-03-31T11:35:12;4.80;;;2.20;;
46090;SDS011;31826;53.572;10.170;2023-03-31T11:38:19;8.15;;;2.63;;
46090;SDS011;31826;53.572;10.170;2023-03-31T11:43:36;6.43;;;2.60;;
46090;SDS011;31826;53.572;10.170;2023-03-31T11:46:07;6.65;;;2.50;;
46090;SDS011;31826;53.572;10.170;2023-03-31T11:54:05;5.00;;;2.40;;
46090;SDS011;31826;53.572;10.170;2023-03-31T11:56:37;6.50;;;2.50;;
46090;SDS011;31826;53.572;10.170;2023-03-31T11:59:05;6.72;;;2.40;;
46090;SDS011;31826;53.572;10.170;2023-03-31T12:01:40;5.70;;;2.80;;
46090;SDS011;31826;53.572;10.170;2023-03-31T12:06:47;8.87;;;2.53;;
46090;SDS011;31826;53.572;10.170;2023-03-31T12:09:20;8.05;;;3.10;;
46090;SDS011;31826;53.572;10.170;2023-03-31T12:17:19;7.35;;;2.60;;
46090;SDS011;31826;53.572;10.170;2023-03-31T12:22:30;9.02;;;2.80;;
46090;SDS011;31826;53.572;10.170;2023-03-31T12:25:11;8.05;;;2.92;;
46090;SDS011;31826;53.572;10.170;2023-03-31T12:27:39;7.55;;;2.58;;
46090;SDS011;31826;53.572;10.170;2023-03-31T12:33:06;5.65;;;2.78;;
46090;SDS011;31826;53.572;10.170;2023-03-31T12:41:36;7.53;;;3.05;;
46090;SDS011;31826;53.572;10.170;2023-03-31T12:44:07;7.00;;;2.70;;
46090;SDS011;31826;53.572;10.170;2023-03-31T12:46:45;6.90;;;2.55;;
46090;SDS011;31826;53.572;10.170;2023-03-31T12:49:58;7.32;;;2.47;;
46090;SDS011;31826;53.572;10.170;2023-03-31T12:52:38;6.28;;;3.13;;
46090;SDS011;31826;53.572;10.170;2023-03-31T12:55:21;6.03;;;2.40;;
46090;SDS011;31826;53.572;10.170;2023-03-31T13:03:50;5.95;;;2.67;;
46090;SDS011;31826;53.572;10.170;2023-03-31T13:14:00;8.07;;;2.53;;
46090;SDS011;31826;53.572;10.170;2023-03-31T13:16:29;7.38;;;2.80;;
46090;SDS011;31826;53.572;10.170;2023-03-31T13:18:56;9.65;;;3.92;;
46090;SDS011;31826;53.572;10.170;2023-03-31T13:21:22;11.20;;;3.57;;
46090;SDS011;31826;53.572;10.170;2023-03-31T13:23:48;6.28;;;2.60;;
46090;SDS011;31826;53.572;10.170;2023-03-31T13:34:27;4.32;;;2.13;;
46090;SDS011;31826;53.572;10.170;2023-03-31T13:39:57;4.78;;;2.13;;
46090;SDS011;31826;53.572;10.170;2023-03-31T13:45:12;7.03;;;3.03;;
46090;SDS011;31826;53.572;10.170;2023-03-31T13:50:40;3.17;;;2.30;;
46090;SDS011;31826;53.572;10.170;2023-03-31T13:59:10;3.78;;;2.35;;
46090;SDS011;31826;53.572;10.170;2023-03-31T14:04:55;4.53;;;2.10;;
46090;SDS011;31826;53.572;10.170;2023-03-31T14:07:46;4.72;;;2.42;;
46090;SDS011;31826;53.572;10.170;2023-03-31T14:10:25;7.05;;;2.70;;
46090;SDS011;31826;53.572;10.170;2023-03-31T14:13:03;6.25;;;2.53;;
46090;SDS011;31826;53.572;10.170;2023-03-31T14:15:32;6.35;;;2.42;;
46090;SDS011;31826;53.572;10.170;2023-03-31T14:18:01;6.87;;;3.20;;
46090;SDS011;31826;53.572;10.170;2023-03-31T14:20:39;8.80;;;2.90;;
46090;SDS011;31826;53.572;10.170;2023-03-31T14:29:37;5.85;;;2.33;;
46090;SDS011;31826;53.572;10.170;2023-03-31T14:32:34;8.65;;;2.50;;
46090;SDS011;31826;53.572;10.170;2023-03-31T14:35:27;8.02;;;2.78;;
46090;SDS011;31826;53.572;10.170;2023-03-31T14:38:02;6.82;;;2.50;;
46090;SDS011;31826;53.572;10.170;2023-03-31T14:40:31;4.63;;;2.53;;
46090;SDS011;31826;53.572;10.170;2023-03-31T14:42:57;3.22;;;2.00;;
46090;SDS011;31826;53.572;10.170;2023-03-31T14:45:24;5.87;;;2.53;;
46090;SDS011;31826;53.572;10.170;2023-03-31T14:48:02;8.27;;;2.60;;
46090;SDS011;31826;53.572;10.170;2023-03-31T14:50:35;7.72;;;3.25;;
46090;SDS011;31826;53.572;10.170;2023-03-31T14:53:01;6.75;;;2.30;;
46090;SDS011;31826;53.572;10.170;2023-03-31T14:55:29;2.90;;;2.05;;
46090;SDS011;31826;53.572;10.170;2023-03-31T14:57:57;7.32;;;1.85;;
46090;SDS011;31826;53.572;10.170;2023-03-31T15:00:26;5.93;;;2.80;;
46090;SDS011;31826;53.572;10.170;2023-03-31T15:02:54;6.22;;;2.30;;
46090;SDS011;31826;53.572;10.170;2023-03-31T15:05:29;2.88;;;1.75;;
46090;SDS011;31826;53.572;10.170;2023-03-31T15:08:06;4.43;;;1.55;;
46090;SDS011;31826;53.572;10.170;2023-03-31T15:10:37;5.53;;;1.60;;
46090;SDS011;31826;53.572;10.170;2023-03-31T15:13:08;2.55;;;1.30;;
46090;SDS011;31826;53.572;10.170;2023-03-31T15:15:35;2.55;;;1.48;;
46090;SDS011;31826;53.572;10.170;2023-03-31T15:18:01;4.63;;;1.60;;
46090;SDS011;31826;53.572;10.170;2023-03-31T15:20:33;2.95;;;1.50;;
46090;SDS011;31826;53.572;10.170;2023-03-31T15:23:01;1.75;;;1.40;;
46090;SDS011;31826;53.572;10.170;2023-03-31T15:25:38;3.25;;;1.48;;
46090;SDS011;31826;53.572;10.170;2023-03-31T15:28:06;5.32;;;1.65;;
46090;SDS011;31826;53.572;10.170;2023-03-31T15:30:37;5.72;;;1.80;;
46090;SDS011;31826;53.572;10.170;2023-03-31T15:33:05;3.15;;;1.50;;
46090;SDS011;31826;53.572;10.170;2023-03-31T15:35:32;5.45;;;2.17;;
46090;SDS011;31826;53.572;10.170;2023-03-31T15:38:01;3.17;;;1.52;;
46090;SDS011;31826;53.572;10.170;2023-03-31T15:40:35;5.72;;;1.52;;
46090;SDS011;31826;53.572;10.170;2023-03-31T15:43:07;4.32;;;1.42;;
46090;SDS011;31826;53.572;10.170;2023-03-31T15:45:54;3.13;;;1.55;;
46090;SDS011;31826;53.572;10.170;2023-03-31T15:51:05;3.37;;;1.40;;
46090;SDS011;31826;53.572;10.170;2023-03-31T15:53:45;2.88;;;1.30;;
46090;SDS011;31826;53.572;10.170;2023-03-31T15:56:23;2.55;;;1.45;;
46090;SDS011;31826;53.572;10.170;2023-03-31T15:58:58;3.38;;;1.40;;
46090;SDS011;31826;53.572;10.170;2023-03-31T16:01:27;3.10;;;1.50;;
46090;SDS011;31826;53.572;10.170;2023-03-31T16:03:57;2.40;;;1.38;;
46090;SDS011;31826;53.572;10.170;2023-03-31T16:06:30;1.23;;;1.02;;
46090;SDS011;31826;53.572;10.170;2023-03-31T16:14:12;3.28;;;2.08;;
46090;SDS011;31826;53.572;10.170;2023-03-31T16:16:46;4.93;;;2.10;;
46090;SDS011;31826;53.572;10.170;2023-03-31T16:19:14;3.40;;;1.50;;
46090;SDS011;31826;53.572;10.170;2023-03-31T16:21:42;3.13;;;1.60;;
46090;SDS011;31826;53.572;10.170;2023-03-31T16:24:14;3.45;;;1.52;;
46090;SDS011;31826;53.572;10.170;2023-03-31T16:26:40;3.25;;;1.50;;
46090;SDS011;31826;53.572;10.170;2023-03-31T16:29:06;3.28;;;1.60;;
46090;SDS011;31826;53.572;10.170;2023-03-31T16:31:33;4.15;;;1.60;;
46090;SDS011;31826;53.572;10.170;2023-03-31T16:33:59;4.07;;;1.70;;
46090;SDS011;31826;53.572;10.170;2023-03-31T16:36:26;4.05;;;1.90;;
46090;SDS011;31826;53.572;10.170;2023-03-31T16:38:52;3.33;;;1.60;;
46090;SDS011;31826;53.572;10.170;2023-03-31T16:41:18;3.00;;;1.70;;
46090;SDS011;31826;53.572;10.170;2023-03-31T16:43:47;4.95;;;1.60;;
46090;SDS011;31826;53.572;10.170;2023-03-31T16:46:16;4.40;;;1.60;;
46090;SDS011;31826;53.572;10.170;2023-03-31T16:48:42;2.53;;;1.60;;
46090;SDS011;31826;53.572;10.170;2023-03-31T16:51:08;3.08;;;1.50;;
46090;SDS011;31826;53.572;10.170;2023-03-31T16:53:34;3.00;;;1.73;;
46090;SDS011;31826;53.572;10.170;2023-03-31T16:56:01;2.55;;;1.70;;
46090;SDS011;31826;53.572;10.170;2023-03-31T16:58:28;3.83;;;1.70;;
46090;SDS011;31826;53.572;10.170;2023-03-31T17:00:55;2.90;;;1.70;;
46090;SDS011;31826;53.572;10.170;2023-03-31T17:03:22;2.88;;;1.60;;
46090;SDS011;31826;53.572;10.170;2023-03-31T17:05:49;5.40;;;2.40;;
46090;SDS011;31826;53.572;10.170;2023-03-31T17:08:17;6.28;;;3.08;;
46090;SDS011;31826;53.572;10.170;2023-03-31T17:10:51;8.88;;;4.28;;
46090;SDS011;31826;53.572;10.170;2023-03-31T17:13:18;48.85;;;14.15;;
46090;SDS011;31826;53.572;10.170;2023-03-31T17:15:45;28.48;;;8.70;;
46090;SDS011;31826;53.572;10.170;2023-03-31T17:18:12;15.10;;;4.78;;
46090;SDS011;31826;53.572;10.170;2023-03-31T17:20:37;12.85;;;4.15;;
46090;SDS011;31826;53.572;10.170;2023-03-31T17:23:03;7.00;;;2.67;;
46090;SDS011;31826;53.572;10.170;2023-03-31T17:25:29;7.57;;;2.10;;
46090;SDS011;31826;53.572;10.170;2023-03-31T17:27:55;7.37;;;2.20;;
46090;SDS011;31826;53.572;10.170;2023-03-31T17:30:21;6.43;;;1.73;;
46090;SDS011;31826;53.572;10.170;2023-03-31T17:32:47;4.35;;;2.10;;
46090;SDS011;31826;53.572;10.170;2023-03-31T17:35:13;3.33;;;1.80;;
46090;SDS011;31826;53.572;10.170;2023-03-31T17:37:45;3.97;;;2.20;;
46090;SDS011;31826;53.572;10.170;2023-03-31T17:40:14;5.43;;;2.30;;
46090;SDS011;31826;53.572;10.170;2023-03-31T17:42:40;5.15;;;2.35;;
46090;SDS011;31826;53.572;10.170;2023-03-31T17:45:07;8.30;;;2.50;;
46090;SDS011;31826;53.572;10.170;2023-03-31T17:47:33;6.65;;;2.40;;